Centralia, Iowa
Current Conditions -  °F | °C
As of 1:53 PM on Friday 24 Oct 2014 (Local Time) from KDBQ Reporting Station
Haze Haze  
Wind Chill: 61°   Ceiling: Unl
Heat Index: 61°   Visibility: 6mi
Dew Point: 55°   Wind: 14mph
Humidity: 81%   Direction: 200°SSW
Pressure: 29.97"   Gusts: NA
Location:  42.4241°N, 90.8165°W
Report Text: KDBQ 241853Z 20012KT 6SM HZ FEW009 16/13 A2997 RMK AO2 SLP148 T01610128
Loading
Personal Weather Stations






























Interactive Weather Map
Tropical Storm Tracking
New forecast layout! Learn more

10-Day Weather Forecast

Advertisements
Track Severe Weather on mobile